Time;durP1;ratioP1;P1;durP2;ratioP2;P2;SDS_P1;SDS_P2;PMS_P1;PMS_P2;Temp;Humidity;BMP_temperature;BMP_pressure;BME280_temperature;BME280_humidity;BME280_pressure;Samples;Min_cycle;Max_cycle;Signal;HPM_P1;HPM_P2
2021/12/02 00:01:31;;;;;;;3.90;1.17;;;3.70;88.90;;;;;;5066803;28;20060;-58
2021/12/02 00:03:59;;;;;;;12.05;1.92;;;3.70;88.70;;;;;;5066751;28;20123;-56
2021/12/02 00:06:25;;;;;;;11.93;1.65;;;3.70;86.00;;;;;;5066737;28;20057;-58
2021/12/02 00:08:52;;;;;;;6.53;2.38;;;3.70;87.80;;;;;;5066942;28;20499;-57
2021/12/02 00:11:19;;;;;;;6.18;2.50;;;3.70;88.80;;;;;;5066560;28;20059;-57
2021/12/02 00:21:18;;;;;;;3.10;1.20;;;3.70;87.30;;;;;;5066965;28;20369;-58
2021/12/02 00:24:03;;;;;;;8.10;1.50;;;3.60;87.70;;;;;;5065381;28;20095;-58
2021/12/02 00:26:37;;;;;;;6.32;1.15;;;3.60;87.50;;;;;;5066138;28;20053;-57
2021/12/02 00:29:05;;;;;;;8.15;1.60;;;3.50;87.80;;;;;;4716848;28;9999844;-57
2021/12/02 00:31:34;;;;;;;3.65;1.00;;;3.50;88.90;;;;;;5069006;28;20048;-56
2021/12/02 00:34:03;;;;;;;6.35;1.48;;;3.50;85.30;;;;;;5068936;28;20052;-58
2021/12/02 00:36:33;;;;;;;9.27;1.70;;;3.50;87.20;;;;;;5068073;28;20071;-56
2021/12/02 00:39:20;;;;;;;3.80;1.17;;;3.40;86.00;;;;;;5068561;28;20534;-59
2021/12/02 00:41:47;;;;;;;8.55;1.17;;;3.50;87.90;;;;;;5064567;28;20500;-59
2021/12/02 00:44:15;;;;;;;7.53;1.35;;;3.40;87.70;;;;;;5068067;28;20045;-60
2021/12/02 00:46:43;;;;;;;6.70;1.45;;;3.40;88.10;;;;;;5067708;28;20074;-59
2021/12/02 00:49:12;;;;;;;7.93;1.27;;;3.40;86.60;;;;;;5068903;28;20053;-60
2021/12/02 00:51:40;;;;;;;9.60;2.15;;;3.40;88.10;;;;;;5066089;28;20535;-60
2021/12/02 00:54:08;;;;;;;8.68;1.10;;;3.30;86.30;;;;;;5066364;28;20458;-60
2021/12/02 00:56:35;;;;;;;6.93;1.77;;;3.30;87.90;;;;;;5066476;28;20083;-60
2021/12/02 00:59:03;;;;;;;6.57;1.10;;;3.30;87.50;;;;;;5066019;28;20052;-60
2021/12/02 01:01:37;;;;;;;5.90;1.13;;;3.80;87.60;;;;;;5066892;28;20146;-60
2021/12/02 01:04:10;;;;;;;8.88;1.30;;;3.20;86.70;;;;;;5067508;28;20044;-59
2021/12/02 01:06:38;;;;;;;7.32;1.00;;;3.10;87.90;;;;;;5068080;28;20525;-60
2021/12/02 01:09:06;;;;;;;3.70;1.02;;;3.20;88.50;;;;;;5068261;28;20095;-58
2021/12/02 01:11:33;;;;;;;8.65;1.58;;;3.30;85.80;;;;;;5067494;28;20084;-58
2021/12/02 01:14:00;;;;;;;8.93;1.92;;;3.20;87.70;;;;;;5068123;28;20491;-56
2021/12/02 01:16:27;;;;;;;7.50;1.55;;;3.30;88.30;;;;;;5069037;28;20040;-57
2021/12/02 01:18:54;;;;;;;9.57;2.67;;;3.10;88.20;;;;;;5069193;28;20060;-58
2021/12/02 01:21:22;;;;;;;7.13;1.30;;;3.10;87.80;;;;;;5067228;28;20099;-57
2021/12/02 01:23:51;;;;;;;3.70;1.23;;;3.10;88.30;;;;;;5067376;28;20040;-58
2021/12/02 01:26:18;;;;;;;8.52;2.42;;;3.00;87.60;;;;;;5066876;28;20052;-59
2021/12/02 01:28:45;;;;;;;7.47;1.13;;;3.10;88.00;;;;;;5067800;28;20048;-56
2021/12/02 01:31:12;;;;;;;3.90;1.15;;;3.10;87.90;;;;;;5067282;28;20109;-58
2021/12/02 01:33:39;;;;;;;7.00;2.47;;;3.10;87.90;;;;;;5067582;28;20102;-59
2021/12/02 01:36:06;;;;;;;2.70;1.13;;;3.10;87.40;;;;;;5067157;28;20124;-57
2021/12/02 01:38:33;;;;;;;4.90;1.27;;;3.00;87.40;;;;;;5062080;28;20067;-57
2021/12/02 01:41:03;;;;;;;12.85;3.60;;;3.00;87.30;;;;;;5067193;28;20533;-58
2021/12/02 01:43:51;;;;;;;6.47;1.08;;;2.90;88.60;;;;;;5068085;28;20076;-55
2021/12/02 01:46:21;;;;;;;7.45;1.33;;;2.90;86.20;;;;;;5067766;28;20566;-59
2021/12/02 01:48:57;;;;;;;10.38;1.60;;;2.90;86.30;;;;;;5066901;28;20110;-57
2021/12/02 01:51:24;;;;;;;8.20;1.00;;;2.90;87.90;;;;;;5067878;28;20049;-57
2021/12/02 01:53:51;;;;;;;4.65;1.52;;;2.90;87.40;;;;;;5066264;28;20044;-60
2021/12/02 01:56:18;;;;;;;5.18;1.35;;;2.90;87.60;;;;;;5067625;28;20110;-57
2021/12/02 01:58:47;;;;;;;12.50;2.55;;;2.90;88.10;;;;;;5066837;28;20051;-57
2021/12/02 02:01:16;;;;;;;7.85;2.38;;;2.80;87.40;;;;;;5068112;28;20160;-58
2021/12/02 02:03:43;;;;;;;3.67;1.20;;;2.90;88.40;;;;;;5067837;28;20044;-55
2021/12/02 02:06:10;;;;;;;7.95;1.08;;;2.90;88.10;;;;;;5067818;28;20420;-58
2021/12/02 02:08:38;;;;;;;3.90;1.48;;;2.80;87.70;;;;;;5066385;28;20048;-56
2021/12/02 02:11:05;;;;;;;2.65;0.88;;;2.80;88.00;;;;;;5066554;28;20475;-57
2021/12/02 02:13:32;;;;;;;13.52;1.65;;;2.80;86.90;;;;;;5067918;28;20391;-59
2021/12/02 02:15:59;;;;;;;4.85;1.17;;;2.70;86.70;;;;;;5067929;28;20056;-57
2021/12/02 02:18:26;;;;;;;6.65;1.33;;;2.70;87.00;;;;;;5067795;28;20044;-57
2021/12/02 02:21:02;;;;;;;4.93;1.17;;;2.70;87.90;;;;;;5067721;28;20044;-58
2021/12/02 02:23:31;;;;;;;5.90;1.38;;;2.60;87.40;;;;;;5067871;28;20131;-57
2021/12/02 02:25:59;;;;;;;5.30;1.20;;;2.60;88.60;;;;;;5071607;28;20118;-57
2021/12/02 02:28:27;;;;;;;8.63;1.25;;;2.60;88.00;;;;;;5071553;28;20083;-58
2021/12/02 02:30:54;;;;;;;3.85;1.10;;;2.50;88.60;;;;;;4722099;27;10000368;-57
2021/12/02 02:33:22;;;;;;;8.05;1.83;;;2.50;88.50;;;;;;5071516;28;20487;-56
2021/12/02 02:35:49;;;;;;;7.45;1.52;;;2.50;88.00;;;;;;5071350;28;20071;-59
2021/12/02 02:38:16;;;;;;;6.95;1.50;;;2.50;88.40;;;;;;5071016;28;20048;-57
2021/12/02 02:40:45;;;;;;;11.45;1.30;;;2.50;88.40;;;;;;5070887;28;20480;-58
2021/12/02 02:43:20;;;;;;;7.13;1.30;;;2.50;88.70;;;;;;5070023;28;20056;-57
2021/12/02 02:45:48;;;;;;;4.63;1.13;;;2.50;88.60;;;;;;5067797;28;20037;-60
2021/12/02 02:48:15;;;;;;;8.02;0.95;;;2.50;88.80;;;;;;5070954;28;20093;-57
2021/12/02 02:50:42;;;;;;;6.28;1.08;;;2.50;89.60;;;;;;5071005;28;20052;-57
2021/12/02 02:53:16;;;;;;;3.53;1.33;;;2.50;88.90;;;;;;5072335;28;20043;-59
2021/12/02 02:55:49;;;;;;;4.40;1.10;;;2.40;88.10;;;;;;5071192;28;20090;-57
2021/12/02 03:01:00;;;;;;;6.32;1.42;;;2.50;88.70;;;;;;5070554;28;20048;-57
2021/12/02 03:04:16;;;;;;;11.18;3.08;;;2.50;88.40;;;;;;5070112;28;20106;-56
2021/12/02 03:06:31;;;;;;;3.53;1.65;;;2.50;88.50;;;;;;5065089;28;20040;-55
2021/12/02 03:09:02;;;;;;;3.92;1.25;;;2.50;88.20;;;;;;5070473;28;20048;-54
2021/12/02 03:11:38;;;;;;;10.05;1.95;;;2.60;89.00;;;;;;5069645;28;20071;-56
2021/12/02 03:14:14;;;;;;;7.22;1.65;;;2.60;87.90;;;;;;5070298;28;20420;-59
2021/12/02 03:16:45;;;;;;;4.88;1.40;;;2.60;88.10;;;;;;5069059;28;20072;-57
2021/12/02 03:19:21;;;;;;;2.17;1.00;;;2.50;87.50;;;;;;5070217;28;20052;-58
2021/12/02 03:21:48;;;;;;;5.35;1.45;;;2.60;88.60;;;;;;5070057;28;20044;-57
2021/12/02 03:24:15;;;;;;;8.02;1.20;;;2.60;88.30;;;;;;5071134;28;20526;-57
2021/12/02 03:26:41;;;;;;;4.03;1.20;;;2.60;88.00;;;;;;5070781;28;20297;-56
2021/12/02 03:29:08;;;;;;;5.85;1.33;;;2.60;88.60;;;;;;5071089;28;20124;-56
2021/12/02 03:31:35;;;;;;;6.40;1.17;;;2.70;88.00;;;;;;5070307;28;20526;-55
2021/12/02 03:34:04;;;;;;;2.30;0.85;;;2.80;87.60;;;;;;5070578;28;20049;-56
2021/12/02 03:36:30;;;;;;;7.38;1.02;;;2.60;86.80;;;;;;5068870;28;20059;-58
2021/12/02 03:38:57;;;;;;;4.95;1.23;;;2.60;87.00;;;;;;5069197;28;20052;-59
2021/12/02 03:41:24;;;;;;;6.25;1.20;;;2.60;87.40;;;;;;5069938;28;20053;-57
2021/12/02 03:43:51;;;;;;;3.75;1.13;;;2.70;86.70;;;;;;5070329;28;20056;-57
2021/12/02 03:46:20;;;;;;;6.57;3.55;;;2.60;86.10;;;;;;5070340;28;20041;-57
2021/12/02 03:48:47;;;;;;;4.38;1.08;;;2.70;86.10;;;;;;5052927;28;20075;-55
2021/12/02 03:51:14;;;;;;;8.45;1.17;;;2.60;86.50;;;;;;5070316;28;20412;-55
2021/12/02 03:53:41;;;;;;;1.27;0.82;;;2.60;87.00;;;;;;5068655;28;20044;-58
2021/12/02 03:56:08;;;;;;;3.30;1.10;;;2.60;86.00;;;;;;5069742;28;20036;-57
2021/12/02 03:58:42;;;;;;;6.90;1.35;;;2.60;86.10;;;;;;5069889;28;20133;-57
2021/12/02 04:01:09;;;;;;;8.00;1.15;;;2.60;87.30;;;;;;5066483;28;20519;-57
2021/12/02 04:03:36;;;;;;;2.45;1.00;;;2.60;86.80;;;;;;5058274;28;20052;-58
2021/12/02 04:06:04;;;;;;;6.10;0.90;;;2.60;85.60;;;;;;5069983;28;20094;-58
2021/12/02 04:08:38;;;;;;;4.25;0.95;;;2.60;87.60;;;;;;5070204;28;20040;-57
2021/12/02 04:16:26;;;;;;;4.65;0.90;;;2.70;86.10;;;;;;5068864;28;20052;-57
2021/12/02 04:18:53;;;;;;;5.63;1.25;;;2.70;85.60;;;;;;5066251;28;20051;-58
2021/12/02 04:21:20;;;;;;;4.53;1.35;;;2.70;86.10;;;;;;5070754;28;20171;-58
2021/12/02 04:23:46;;;;;;;7.68;1.30;;;2.70;85.50;;;;;;5068321;28;20052;-57
2021/12/02 04:26:13;;;;;;;3.25;1.70;;;2.70;85.10;;;;;;5070177;28;20053;-60
2021/12/02 04:28:40;;;;;;;4.90;1.20;;;2.70;84.50;;;;;;5070840;28;20102;-58
2021/12/02 04:31:07;;;;;;;6.93;1.45;;;2.70;84.90;;;;;;5070007;28;20411;-56
2021/12/02 04:33:34;;;;;;;6.93;1.45;;;2.70;86.30;;;;;;5069732;28;20140;-57
2021/12/02 04:36:02;;;;;;;3.05;1.00;;;2.70;84.10;;;;;;5069794;28;20049;-56
2021/12/02 04:38:29;;;;;;;2.55;0.77;;;2.70;84.50;;;;;;5070941;28;20052;-57
2021/12/02 04:40:56;;;;;;;6.32;1.60;;;2.50;85.60;;;;;;5070297;28;20495;-58
2021/12/02 04:43:23;;;;;;;9.60;1.00;;;2.70;85.70;;;;;;5071309;28;20048;-55
2021/12/02 04:45:50;;;;;;;3.50;0.88;;;2.70;85.00;;;;;;5069579;28;20475;-56
2021/12/02 04:48:17;;;;;;;1.35;0.60;;;2.70;85.60;;;;;;5067417;28;20052;-56
2021/12/02 04:50:44;;;;;;;3.80;1.17;;;2.70;84.70;;;;;;5068789;28;20068;-57
2021/12/02 04:53:11;;;;;;;2.05;0.80;;;2.70;85.40;;;;;;5068956;28;20109;-57
2021/12/02 04:55:38;;;;;;;7.78;1.15;;;2.70;86.50;;;;;;5068922;28;20106;-56
2021/12/02 04:58:05;;;;;;;6.50;0.80;;;2.70;84.80;;;;;;5068992;28;20174;-59
2021/12/02 05:00:32;;;;;;;1.63;0.90;;;2.70;85.30;;;;;;5067574;28;20088;-56
2021/12/02 05:03:01;;;;;;;5.07;1.05;;;2.70;85.50;;;;;;5068655;28;20487;-56
2021/12/02 05:05:28;;;;;;;4.75;0.70;;;2.80;85.00;;;;;;5067391;28;20045;-57
2021/12/02 05:07:55;;;;;;;11.63;1.60;;;2.70;84.40;;;;;;5068965;28;20059;-57
2021/12/02 05:10:22;;;;;;;3.80;0.93;;;2.70;84.70;;;;;;5068603;28;20052;-56
2021/12/02 05:12:49;;;;;;;5.75;0.80;;;2.70;84.70;;;;;;5068887;28;20071;-56
2021/12/02 05:15:16;;;;;;;1.85;0.80;;;2.70;86.40;;;;;;5068763;28;20121;-56
2021/12/02 05:17:43;;;;;;;5.90;0.88;;;2.70;85.50;;;;;;5068703;28;20090;-55
2021/12/02 05:20:10;;;;;;;4.90;0.60;;;2.70;86.50;;;;;;5068412;28;20130;-57
2021/12/02 05:22:37;;;;;;;4.70;0.75;;;2.70;86.00;;;;;;5067466;28;20139;-56
2021/12/02 05:25:05;;;;;;;14.23;1.80;;;2.70;85.40;;;;;;5067918;28;20052;-56
2021/12/02 05:27:31;;;;;;;1.80;1.10;;;2.70;85.60;;;;;;5068697;28;20044;-56
2021/12/02 05:29:58;;;;;;;1.38;0.70;;;2.60;85.30;;;;;;5068410;28;20486;-55
2021/12/02 05:32:25;;;;;;;8.68;0.90;;;2.80;86.40;;;;;;5068163;28;20056;-56
2021/12/02 05:34:52;;;;;;;5.93;0.90;;;2.70;84.90;;;;;;5068303;28;20040;-57
2021/12/02 05:37:20;;;;;;;6.43;2.28;;;2.70;84.70;;;;;;5067457;28;20052;-56
2021/12/02 05:39:47;;;;;;;7.40;1.17;;;2.70;85.70;;;;;;5068292;28;20090;-57
2021/12/02 05:42:14;;;;;;;7.43;1.25;;;2.80;84.80;;;;;;5068340;28;20059;-57
2021/12/02 05:44:41;;;;;;;9.45;1.20;;;2.80;85.10;;;;;;5068725;28;20094;-58
2021/12/02 05:47:07;;;;;;;4.95;0.80;;;2.80;84.80;;;;;;5068735;28;20079;-57
2021/12/02 05:49:34;;;;;;;6.55;1.67;;;2.80;85.10;;;;;;5068254;28;20100;-54
2021/12/02 05:52:01;;;;;;;11.35;1.15;;;2.90;85.10;;;;;;5068773;28;20094;-56
2021/12/02 05:54:28;;;;;;;5.97;0.73;;;2.90;85.60;;;;;;5068489;28;20071;-55
2021/12/02 05:56:55;;;;;;;5.60;0.90;;;2.90;85.40;;;;;;5066425;28;20086;-56
2021/12/02 05:59:22;;;;;;;6.47;0.90;;;3.00;83.70;;;;;;5072847;28;20071;-58
2021/12/02 06:01:49;;;;;;;4.68;1.23;;;3.00;84.80;;;;;;5075309;28;20044;-57
2021/12/02 06:04:16;;;;;;;3.15;1.00;;;3.10;84.20;;;;;;5075745;28;20135;-56
2021/12/02 06:06:43;;;;;;;3.55;0.60;;;3.10;81.90;;;;;;5074461;28;20311;-55
2021/12/02 06:09:10;;;;;;;4.30;1.10;;;3.10;84.30;;;;;;5074786;28;20048;-57
2021/12/02 06:11:40;;;;;;;2.35;1.00;;;3.20;84.90;;;;;;5072920;28;20048;-57
2021/12/02 06:14:07;;;;;;;6.72;1.15;;;3.20;84.80;;;;;;5074628;28;20132;-55
2021/12/02 06:16:34;;;;;;;3.72;1.13;;;3.20;84.10;;;;;;5074241;28;20080;-56
2021/12/02 06:19:00;;;;;;;1.52;0.50;;;3.10;86.60;;;;;;5074577;28;20049;-57
2021/12/02 06:21:27;;;;;;;1.65;0.50;;;3.10;88.80;;;;;;5072855;28;20517;-58
2021/12/02 06:23:56;;;;;;;1.00;0.60;;;3.00;89.30;;;;;;5074559;28;20169;-56
2021/12/02 06:26:22;;;;;;;2.63;1.50;;;2.90;90.10;;;;;;5074016;28;20084;-57
2021/12/02 06:28:49;;;;;;;2.63;0.68;;;2.80;90.30;;;;;;5074492;28;20121;-57
2021/12/02 06:31:16;;;;;;;6.40;0.43;;;2.80;90.10;;;;;;5074156;28;20045;-57
2021/12/02 06:33:43;;;;;;;4.55;0.40;;;2.80;90.20;;;;;;5074398;28;20495;-56
2021/12/02 06:36:09;;;;;;;1.30;0.52;;;2.70;89.40;;;;;;5072453;28;20131;-56
2021/12/02 06:38:56;;;;;;;2.95;0.70;;;2.70;90.00;;;;;;5073867;28;20525;-57
2021/12/02 06:41:23;;;;;;;6.78;1.15;;;2.70;90.20;;;;;;5074007;28;20091;-62
2021/12/02 06:43:50;;;;;;;2.72;1.10;;;2.70;90.10;;;;;;5072526;28;20084;-57
2021/12/02 06:46:16;;;;;;;2.90;0.63;;;2.70;90.10;;;;;;5073632;28;20079;-56
2021/12/02 06:48:44;;;;;;;6.32;0.85;;;2.70;90.40;;;;;;5071140;28;20044;-57
2021/12/02 06:51:13;;;;;;;2.90;0.60;;;2.60;90.10;;;;;;5074131;28;20407;-56
2021/12/02 06:53:41;;;;;;;2.30;0.85;;;2.50;90.30;;;;;;5073903;28;20083;-56
2021/12/02 06:56:08;;;;;;;2.10;0.75;;;2.50;90.50;;;;;;5073477;28;20048;-56
2021/12/02 06:58:35;;;;;;;0.93;0.80;;;2.50;90.40;;;;;;5074163;28;20044;-56
2021/12/02 07:01:02;;;;;;;1.88;0.70;;;2.40;90.80;;;;;;5074307;28;20055;-57
2021/12/02 07:03:29;;;;;;;3.58;0.70;;;2.40;90.70;;;;;;5073704;28;20102;-58
2021/12/02 07:05:57;;;;;;;13.50;1.77;;;2.40;90.90;;;;;;5074218;28;20455;-59
2021/12/02 07:08:24;;;;;;;1.55;0.70;;;2.40;91.10;;;;;;5073944;28;20048;-59
2021/12/02 07:10:51;;;;;;;5.43;0.85;;;2.30;91.60;;;;;;4731265;27;10001309;-57
2021/12/02 07:13:18;;;;;;;7.38;1.00;;;2.20;91.80;;;;;;5067270;28;20287;-58
2021/12/02 07:15:51;;;;;;;1.58;0.70;;;2.10;92.40;;;;;;5067056;28;20045;-58
2021/12/02 07:18:18;;;;;;;4.35;0.90;;;2.00;92.30;;;;;;5067498;28;20637;-55
2021/12/02 07:20:47;;;;;;;1.42;0.63;;;2.00;93.10;;;;;;5067356;28;20281;-57
2021/12/02 07:23:18;;;;;;;3.65;1.25;;;2.00;92.90;;;;;;5067025;28;20048;-58
2021/12/02 07:25:46;;;;;;;5.70;0.70;;;1.90;93.10;;;;;;5066822;28;20406;-56
2021/12/02 07:28:14;;;;;;;4.45;0.93;;;1.90;93.50;;;;;;5066733;28;20113;-55
2021/12/02 07:30:40;;;;;;;7.03;2.67;;;1.80;93.80;;;;;;5067401;28;20048;-60
2021/12/02 07:33:11;;;;;;;3.58;1.52;;;1.80;93.60;;;;;;5066452;28;20057;-56
2021/12/02 07:35:37;;;;;;;12.63;1.73;;;1.80;93.60;;;;;;5049982;28;20048;-55
2021/12/02 07:38:05;;;;;;;11.45;1.65;;;1.70;94.20;;;;;;5067642;28;20131;-55
2021/12/02 07:40:35;;;;;;;3.25;1.27;;;1.80;93.80;;;;;;5065188;28;20531;-55
2021/12/02 07:43:02;;;;;;;6.55;1.10;;;1.80;93.70;;;;;;5067065;28;20044;-56
2021/12/02 07:45:32;;;;;;;2.50;0.70;;;1.70;94.40;;;;;;5066611;28;20496;-54
2021/12/02 07:48:00;;;;;;;2.58;0.90;;;1.70;94.20;;;;;;5067141;28;20053;-55
2021/12/02 07:50:27;;;;;;;4.47;1.27;;;1.70;94.40;;;;;;5066648;28;20129;-56
2021/12/02 07:52:58;;;;;;;3.97;0.82;;;1.70;94.80;;;;;;5067656;28;20052;-55
2021/12/02 07:55:25;;;;;;;5.20;1.20;;;1.70;94.70;;;;;;5066368;28;20124;-56
2021/12/02 07:57:53;;;;;;;6.70;1.23;;;1.70;94.40;;;;;;5066588;28;20052;-55
2021/12/02 08:00:24;;;;;;;8.32;1.20;;;1.80;94.60;;;;;;5066260;28;20072;-55
2021/12/02 08:02:52;;;;;;;4.47;1.25;;;1.70;94.60;;;;;;5066812;28;20055;-55
2021/12/02 08:05:22;;;;;;;6.45;1.45;;;1.60;95.10;;;;;;5065070;28;20086;-57
2021/12/02 08:07:49;;;;;;;4.78;1.42;;;1.60;95.40;;;;;;5065779;28;20052;-54
2021/12/02 08:10:16;;;;;;;3.75;1.10;;;1.60;94.60;;;;;;5064240;28;20197;-55
2021/12/02 08:12:47;;;;;;;5.07;1.27;;;1.60;95.30;;;;;;5066151;28;20107;-55
2021/12/02 08:15:25;;;;;;;4.70;2.00;;;1.60;95.40;;;;;;5065992;28;20045;-59
2021/12/02 08:17:52;;;;;;;9.13;1.83;;;1.70;95.10;;;;;;5066903;28;20044;-56
2021/12/02 08:20:20;;;;;;;8.95;1.70;;;1.60;95.00;;;;;;5066299;28;20080;-54
2021/12/02 08:22:47;;;;;;;6.15;1.45;;;1.70;95.30;;;;;;5064833;28;20106;-52
2021/12/02 08:25:14;;;;;;;11.27;1.92;;;1.60;95.20;;;;;;5066267;28;20071;-54
2021/12/02 08:27:41;;;;;;;7.32;3.13;;;1.60;95.40;;;;;;5065644;28;20503;-54
2021/12/02 08:30:10;;;;;;;4.55;1.40;;;1.60;95.40;;;;;;5064517;28;20584;-55
2021/12/02 08:32:40;;;;;;;6.50;2.00;;;1.60;95.50;;;;;;5065480;28;20044;-53
2021/12/02 08:35:08;;;;;;;11.65;2.38;;;1.60;95.40;;;;;;5048286;28;20819;-54
2021/12/02 08:37:37;;;;;;;7.80;1.55;;;1.70;95.20;;;;;;5064781;28;20431;-53
2021/12/02 08:40:04;;;;;;;2.45;1.02;;;1.80;94.80;;;;;;5065663;28;20111;-54
2021/12/02 08:42:32;;;;;;;6.82;1.83;;;1.80;95.10;;;;;;5063584;28;20044;-52
2021/12/02 08:45:00;;;;;;;8.18;3.55;;;1.80;94.90;;;;;;5065326;28;20080;-54
2021/12/02 08:47:28;;;;;;;14.73;1.60;;;1.80;94.70;;;;;;5065452;28;20515;-52
2021/12/02 08:49:55;;;;;;;7.95;1.60;;;2.00;94.90;;;;;;5065429;28;20056;-56
2021/12/02 08:52:23;;;;;;;7.30;2.20;;;1.90;94.80;;;;;;5065000;28;20734;-54
2021/12/02 08:54:50;;;;;;;7.93;1.73;;;1.90;94.80;;;;;;5044803;28;20508;-52
2021/12/02 08:57:31;;;;;;;5.60;1.35;;;1.90;94.60;;;;;;5044971;28;20059;-54
2021/12/02 08:59:58;;;;;;;4.15;1.40;;;1.90;94.50;;;;;;5065368;28;20139;-53
2021/12/02 09:02:24;;;;;;;7.78;2.38;;;2.00;94.30;;;;;;5065269;28;20552;-59
2021/12/02 09:04:52;;;;;;;8.75;2.17;;;2.00;94.10;;;;;;5065927;28;20084;-54
2021/12/02 09:07:19;;;;;;;4.55;1.27;;;2.00;94.20;;;;;;5064856;28;20049;-54
2021/12/02 09:09:46;;;;;;;10.73;2.10;;;2.10;94.00;;;;;;5064016;28;20078;-52
2021/12/02 09:12:13;;;;;;;7.50;1.80;;;2.10;93.90;;;;;;5063866;28;20101;-54
2021/12/02 09:14:40;;;;;;;10.00;1.95;;;2.10;93.80;;;;;;5064668;28;20076;-57
2021/12/02 09:17:06;;;;;;;4.63;1.67;;;2.20;93.80;;;;;;5065725;28;20062;-57
2021/12/02 09:19:33;;;;;;;13.23;1.38;;;2.20;93.40;;;;;;5064561;28;20048;-54
2021/12/02 09:22:00;;;;;;;10.30;2.88;;;2.30;93.40;;;;;;5065945;28;20052;-55
2021/12/02 09:24:27;;;;;;;12.32;1.65;;;2.30;93.30;;;;;;5067239;28;20098;-53
2021/12/02 09:26:54;;;;;;;17.08;2.00;;;2.30;93.20;;;;;;5067355;28;20616;-54
2021/12/02 09:29:21;;;;;;;6.80;1.27;;;2.40;92.60;;;;;;5068224;28;20624;-54
2021/12/02 09:31:47;;;;;;;7.22;1.20;;;2.40;92.20;;;;;;5066275;28;20607;-55
2021/12/02 09:34:14;;;;;;;11.05;2.65;;;2.50;92.40;;;;;;5063861;28;20090;-52
2021/12/02 09:36:41;;;;;;;6.70;1.70;;;2.50;92.20;;;;;;5065183;28;20372;-54
2021/12/02 09:39:09;;;;;;;12.13;1.88;;;2.60;91.90;;;;;;5064670;28;20730;-53
2021/12/02 09:41:36;;;;;;;3.35;1.73;;;2.70;91.70;;;;;;5064710;28;20242;-51
2021/12/02 09:44:04;;;;;;;3.03;0.93;;;2.70;91.40;;;;;;5064570;28;20496;-57
2021/12/02 09:46:30;;;;;;;3.25;1.42;;;2.70;90.70;;;;;;5064632;28;20045;-54
2021/12/02 09:49:00;;;;;;;7.63;1.33;;;2.70;90.90;;;;;;5064605;28;20055;-55
2021/12/02 09:51:35;;;;;;;6.80;1.48;;;2.80;90.80;;;;;;5064025;28;20048;-55
2021/12/02 09:54:23;;;;;;;6.22;1.25;;;2.80;89.70;;;;;;5063467;28;20135;-51
2021/12/02 09:56:53;;;;;;;3.85;1.58;;;2.90;89.90;;;;;;5064658;28;20120;-51
2021/12/02 10:00:02;;;;;;;3.80;0.75;;;3.00;89.20;;;;;;5064123;28;20080;-53
2021/12/02 10:02:12;;;;;;;4.47;1.27;;;3.00;87.60;;;;;;5044608;28;20041;-53
2021/12/02 10:04:48;;;;;;;12.80;2.03;;;3.10;87.00;;;;;;5064746;28;20048;-52
2021/12/02 10:07:29;;;;;;;2.60;0.98;;;3.10;87.50;;;;;;5045014;28;20057;-52
2021/12/02 10:12:40;;;;;;;2.33;0.80;;;3.30;88.70;;;;;;5059105;28;20102;-52
2021/12/02 10:15:12;;;;;;;7.50;1.70;;;3.30;85.80;;;;;;5064487;28;20157;-53
2021/12/02 10:17:45;;;;;;;3.58;1.10;;;3.30;86.70;;;;;;5044986;28;20090;-54
2021/12/02 10:20:23;;;;;;;9.68;1.00;;;3.30;89.00;;;;;;5060058;28;20056;-54
2021/12/02 10:25:54;;;;;;;1.98;1.13;;;3.40;84.60;;;;;;5063449;28;20112;-52
2021/12/02 10:28:22;;;;;;;2.67;1.00;;;3.40;84.60;;;;;;5064543;28;20127;-54
2021/12/02 10:30:56;;;;;;;2.13;0.93;;;3.50;86.50;;;;;;5062566;28;20048;-54
2021/12/02 10:33:40;;;;;;;6.50;1.02;;;3.50;83.70;;;;;;5063880;28;20080;-54
2021/12/02 10:36:09;;;;;;;3.17;0.93;;;3.50;83.70;;;;;;5064089;28;20049;-50
2021/12/02 10:38:38;;;;;;;3.28;1.13;;;3.50;83.60;;;;;;5064678;28;20479;-52
2021/12/02 10:41:21;;;;;;;5.57;1.08;;;3.60;86.90;;;;;;5063574;28;20147;-51
2021/12/02 10:44:14;;;;;;;4.75;1.00;;;3.60;85.20;;;;;;5062819;28;20067;-53
2021/12/02 10:47:00;;;;;;;8.20;1.30;;;3.70;85.50;;;;;;5066874;28;20044;-51
2021/12/02 10:49:49;;;;;;;11.50;1.48;;;3.60;84.00;;;;;;5066291;28;20060;-51
2021/12/02 10:52:28;;;;;;;5.28;1.08;;;3.70;85.80;;;;;;5065447;28;20087;-54
2021/12/02 10:55:07;;;;;;;4.72;1.00;;;3.70;84.20;;;;;;5066266;28;20102;-54
2021/12/02 10:57:37;;;;;;;7.43;1.27;;;3.70;84.10;;;;;;5065660;28;20178;-52
2021/12/02 11:00:09;;;;;;;4.65;1.92;;;3.70;85.40;;;;;;5066152;28;20052;-54
2021/12/02 11:02:39;;;;;;;7.90;1.17;;;3.70;84.20;;;;;;5064748;28;20044;-54
2021/12/02 11:05:22;;;;;;;5.32;1.30;;;3.70;83.40;;;;;;5065910;28;20493;-54
2021/12/02 11:08:04;;;;;;;4.45;1.25;;;3.70;83.80;;;;;;5064951;28;20063;-51
2021/12/02 11:10:39;;;;;;;5.97;1.95;;;3.80;86.90;;;;;;5065518;28;20136;-52
2021/12/02 11:13:07;;;;;;;3.47;1.33;;;3.80;86.50;;;;;;5065911;28;20104;-53
2021/12/02 11:15:35;;;;;;;9.70;1.60;;;3.90;85.90;;;;;;5065378;28;20047;-54
2021/12/02 11:18:03;;;;;;;4.50;1.35;;;4.10;85.50;;;;;;5067545;28;20491;-54
2021/12/02 11:20:33;;;;;;;4.22;1.13;;;4.00;84.70;;;;;;5067627;28;20056;-53
2021/12/02 11:23:12;;;;;;;8.93;2.83;;;4.10;85.60;;;;;;5063174;28;20098;-51
2021/12/02 11:25:57;;;;;;;7.90;1.00;;;4.10;86.40;;;;;;5067156;28;20146;-52
2021/12/02 11:28:26;;;;;;;2.63;0.80;;;4.10;85.10;;;;;;5065999;28;20415;-54
2021/12/02 11:30:53;;;;;;;7.47;1.05;;;4.10;83.10;;;;;;5067421;28;20185;-53
2021/12/02 11:33:32;;;;;;;8.70;1.15;;;4.10;85.60;;;;;;5063842;28;20053;-54
2021/12/02 11:35:59;;;;;;;4.70;1.05;;;4.10;84.60;;;;;;5067038;28;20508;-54
2021/12/02 11:38:27;;;;;;;6.70;1.30;;;4.20;84.30;;;;;;5067072;28;20080;-55
2021/12/02 11:40:59;;;;;;;3.72;1.05;;;4.10;84.40;;;;;;5065971;28;20123;-55
2021/12/02 11:43:30;;;;;;;2.17;1.33;;;4.20;85.70;;;;;;5066661;28;20084;-54
2021/12/02 11:45:58;;;;;;;5.47;1.20;;;4.20;86.00;;;;;;5065610;28;20072;-54
2021/12/02 11:48:38;;;;;;;2.30;1.00;;;4.30;85.90;;;;;;5067187;28;20048;-53
2021/12/02 11:51:17;;;;;;;3.15;1.10;;;4.30;85.30;;;;;;5066897;28;20052;-55
2021/12/02 11:53:45;;;;;;;10.57;1.58;;;4.30;83.10;;;;;;5066792;28;20053;-53
2021/12/02 11:56:16;;;;;;;5.13;1.20;;;4.30;84.20;;;;;;5064898;28;20550;-52
2021/12/02 11:58:43;;;;;;;5.05;1.05;;;4.30;82.50;;;;;;5066134;28;20044;-53
2021/12/02 12:01:18;;;;;;;3.92;1.48;;;4.30;83.60;;;;;;5066843;28;20149;-52
2021/12/02 12:03:47;;;;;;;7.68;1.90;;;4.20;83.40;;;;;;5066129;28;20137;-51
2021/12/02 12:06:15;;;;;;;8.85;1.50;;;4.30;85.40;;;;;;5046556;28;20080;-54
2021/12/02 12:08:49;;;;;;;14.80;1.63;;;4.40;85.60;;;;;;5060889;28;20566;-58
2021/12/02 12:11:24;;;;;;;3.80;0.97;;;4.40;84.90;;;;;;5069327;28;20055;-54
2021/12/02 12:14:00;;;;;;;5.78;1.48;;;4.50;85.60;;;;;;5071444;28;20106;-55
2021/12/02 12:16:28;;;;;;;11.25;1.85;;;4.50;83.00;;;;;;5066716;28;20415;-55
2021/12/02 12:18:57;;;;;;;6.07;0.77;;;4.40;84.90;;;;;;5066163;28;20411;-54
2021/12/02 12:21:40;;;;;;;6.22;2.50;;;4.40;83.10;;;;;;5064220;28;20056;-53
2021/12/02 12:24:08;;;;;;;11.88;1.40;;;4.50;83.90;;;;;;5064330;28;20066;-54
2021/12/02 12:26:53;;;;;;;2.25;0.95;;;4.50;85.60;;;;;;5065691;28;20044;-53
2021/12/02 12:29:20;;;;;;;3.38;1.20;;;4.50;82.70;;;;;;5064531;28;20094;-53
2021/12/02 12:32:02;;;;;;;6.43;2.35;;;4.60;83.80;;;;;;5065801;28;20407;-55
2021/12/02 12:34:32;;;;;;;5.35;1.30;;;4.60;82.40;;;;;;5064923;28;20087;-52
2021/12/02 12:37:20;;;;;;;4.75;1.60;;;4.70;83.90;;;;;;5065783;28;20095;-54
2021/12/02 12:40:08;;;;;;;4.65;1.40;;;4.70;83.70;;;;;;5064501;28;20079;-55
2021/12/02 12:42:37;;;;;;;5.30;1.15;;;4.70;82.50;;;;;;5044590;28;20784;-53
2021/12/02 12:45:06;;;;;;;3.28;1.25;;;4.60;82.00;;;;;;5063979;28;20060;-53
2021/12/02 12:47:47;;;;;;;5.80;1.60;;;4.60;84.00;;;;;;5065680;28;20072;-54
2021/12/02 12:50:36;;;;;;;4.25;1.20;;;4.60;83.80;;;;;;5065097;28;20092;-51
2021/12/02 12:53:03;;;;;;;8.00;1.17;;;4.70;83.80;;;;;;5045550;28;20496;-52
2021/12/02 12:55:30;;;;;;;6.88;1.52;;;4.70;83.60;;;;;;5061665;28;20052;-54
2021/12/02 12:58:14;;;;;;;9.23;1.30;;;4.70;84.10;;;;;;5065315;28;20523;-52
2021/12/02 13:00:45;;;;;;;6.25;1.00;;;4.70;82.50;;;;;;5063578;28;20139;-53
2021/12/02 13:03:20;;;;;;;4.78;1.30;;;4.70;84.10;;;;;;5065536;28;20404;-51
2021/12/02 13:05:51;;;;;;;4.45;1.13;;;4.80;84.00;;;;;;5063833;28;20049;-55
2021/12/02 13:08:19;;;;;;;7.25;1.17;;;4.80;84.30;;;;;;5044602;28;20102;-55
2021/12/02 13:10:53;;;;;;;8.68;1.25;;;4.80;82.70;;;;;;5059546;28;20132;-53
2021/12/02 13:13:29;;;;;;;4.35;1.08;;;4.90;82.60;;;;;;5064752;28;20211;-52
2021/12/02 13:16:11;;;;;;;5.03;1.13;;;4.90;81.90;;;;;;5063350;28;20071;-52
2021/12/02 13:18:39;;;;;;;5.50;1.40;;;5.00;82.90;;;;;;5045081;28;20049;-55
2021/12/02 13:21:27;;;;;;;6.95;1.42;;;5.00;84.50;;;;;;5059377;28;20041;-56
2021/12/02 13:23:55;;;;;;;4.70;1.20;;;5.00;82.10;;;;;;5045101;28;20127;-53
2021/12/02 13:26:36;;;;;;;8.88;2.00;;;5.00;83.60;;;;;;5060108;28;20500;-56
2021/12/02 13:29:08;;;;;;;12.20;1.52;;;5.00;81.20;;;;;;5044102;28;20063;-53
2021/12/02 13:31:36;;;;;;;9.43;1.48;;;5.00;83.80;;;;;;5059532;28;20084;-55